^^
Grace C. Lehan Memorial Weather Station Historical Data
Daily Summary for November 25, 2021 Units:  Both    English   Metric
Daily Weekly Monthly Yearly
  High: Low: Average:
Temperature: 54.3 °F /  12.4 °C 31.7 °F /  -0.2 °C 43.3 °F /  6.3 °C
Dew Point: 34 °F /  1.1 °C 24.3 °F /  -4.3 °C 29.4 °F /  -1.4 °C
Humidity: 79% 43.4% 59%
Wind Speed: 3mph /  4.8km/h - 0.1mph /  0.2km/h
Wind Gust: 10mph /  16.1km/h - -
Wind- - WSW
Pressure: 30.17 in /  1021.6 hPa 29.73 in /  1006.7 hPa -
Precipitation: 0.00 in /  0 mm    
 
 
Tabular Data for November 25, 2021
Time Temperature Dew Point Pressure Wind Wind Speed Wind Gust Humidity Rainfall Rate (Hourly) solar
00:04 32.7 °F /  0.4 °C 24.5 °F /  -4.2 °C 30.17in /  1021.6hPa Calm   2mph /  3.2km/h 71.6% 0.00in /  0mm 0 W/m2
00:09 32.7 °F /  0.4 °C 24.4 °F /  -4.2 °C 30.17in /  1021.6hPa Calm     71% 0.00in /  0mm 0 W/m2
00:14 32.7 °F /  0.4 °C 24.3 °F /  -4.3 °C 30.17in /  1021.6hPa WNW 0.3mph /  0.5km/h 2mph /  3.2km/h 71% 0.00in /  0mm 0 W/m2
00:19 32.6 °F /  0.3 °C 24.5 °F /  -4.2 °C 30.17in /  1021.6hPa WNW 0.4mph /  0.6km/h 2mph /  3.2km/h 71.7% 0.00in /  0mm 0 W/m2
00:24 32.5 °F /  0.3 °C 24.6 °F /  -4.1 °C 30.17in /  1021.6hPa Calm   2mph /  3.2km/h 72.5% 0.00in /  0mm 0 W/m2
00:29 32.3 °F /  0.2 °C 24.6 °F /  -4.1 °C 30.17in /  1021.6hPa Calm   2mph /  3.2km/h 73% 0.00in /  0mm 0 W/m2
00:34 32.2 °F /  0.1 °C 24.7 °F /  -4.1 °C 30.17in /  1021.6hPa Calm   2mph /  3.2km/h 73.3% 0.00in /  0mm 0 W/m2
00:39 32.3 °F /  0.2 °C 25.2 °F /  -3.8 °C 30.17in /  1021.6hPa Calm     74.8% 0.00in /  0mm 0 W/m2
00:44 32.3 °F /  0.2 °C 25.3 °F /  -3.7 °C 30.17in /  1021.6hPa Calm     75% 0.00in /  0mm 0 W/m2
00:49 32.4 °F /  0.2 °C 25.1 °F /  -3.8 °C 30.17in /  1021.6hPa Calm     74.3% 0.00in /  0mm 0 W/m2
00:54 32.5 °F /  0.3 °C 25.1 °F /  -3.8 °C 30.17in /  1021.6hPa Calm     73.8% 0.00in /  0mm 0 W/m2
00:59 32.6 °F /  0.3 °C 25.2 °F /  -3.8 °C 30.16in /  1021.2hPa Calm     74% 0.00in /  0mm 0 W/m2
01:04 32.7 °F /  0.4 °C 25.1 °F /  -3.8 °C 30.16in /  1021.2hPa Calm     73.3% 0.00in /  0mm 0 W/m2
01:09 32.8 °F /  0.4 °C 25.1 °F /  -3.8 °C 30.16in /  1021.2hPa Calm     73% 0.00in /  0mm 0 W/m2
01:14 32.9 °F /  0.5 °C 25.1 °F /  -3.8 °C 30.16in /  1021.2hPa Calm     72.7% 0.00in /  0mm 0 W/m2
01:19 33.1 °F /  0.6 °C 25.1 °F /  -3.8 °C 30.15in /  1020.9hPa Calm     72% 0.00in /  0mm 0 W/m2
01:24 33.3 °F /  0.7 °C 25.1 °F /  -3.8 °C 30.16in /  1021.2hPa Calm     71.6% 0.00in /  0mm 0 W/m2
01:29 33.5 °F /  0.8 °C 25.2 °F /  -3.8 °C 30.16in /  1021.2hPa WNW 0.1mph /  0.2km/h 2mph /  3.2km/h 71.2% 0.00in /  0mm 0 W/m2
01:34 33.6 °F /  0.9 °C 25.6 °F /  -3.6 °C 30.16in /  1021.2hPa Calm   2mph /  3.2km/h 72.2% 0.00in /  0mm 0 W/m2
01:39 33.6 °F /  0.9 °C 25.5 °F /  -3.6 °C 30.16in /  1021.2hPa Calm     71.8% 0.00in /  0mm 0 W/m2
01:44 33.6 °F /  0.9 °C 25.3 °F /  -3.7 °C 30.16in /  1021.2hPa WNW 0.1mph /  0.2km/h 1mph /  1.6km/h 71% 0.00in /  0mm 0 W/m2
01:49 33.7 °F /  0.9 °C 25.2 °F /  -3.8 °C 30.16in /  1021.2hPa WNW 0.1mph /  0.2km/h 2mph /  3.2km/h 70.5% 0.00in /  0mm 0 W/m2
01:54 33.8 °F /  1 °C 25 °F /  -3.9 °C 30.16in /  1021.2hPa Calm   2mph /  3.2km/h 69.6% 0.00in /  0mm 0 W/m2
01:59 34 °F /  1.1 °C 24.9 °F /  -3.9 °C 30.16in /  1021.2hPa Calm   2mph /  3.2km/h 69% 0.00in /  0mm 0 W/m2
02:04 34.2 °F /  1.2 °C 25.1 °F /  -3.8 °C 30.16in /  1021.2hPa Calm   2mph /  3.2km/h 69% 0.00in /  0mm 0 W/m2
02:09 34.1 °F /  1.2 °C 25.6 °F /  -3.6 °C 30.15in /  1020.9hPa WNW 0.2mph /  0.3km/h 1mph /  1.6km/h 70.6% 0.00in /  0mm 0 W/m2
02:14 33.8 °F /  1 °C 25.7 °F /  -3.5 °C 30.15in /  1020.9hPa Calm   1mph /  1.6km/h 71.9% 0.00in /  0mm 0 W/m2
02:19 33.6 °F /  0.9 °C 25.9 °F /  -3.4 °C 30.15in /  1020.9hPa Calm   1mph /  1.6km/h 73.1% 0.00in /  0mm 0 W/m2
02:24 33.3 °F /  0.7 °C 26 °F /  -3.3 °C 30.15in /  1020.9hPa Calm   1mph /  1.6km/h 74% 0.00in /  0mm 0 W/m2
02:29 33.2 °F /  0.7 °C 25.6 °F /  -3.6 °C 30.15in /  1020.9hPa Calm   1mph /  1.6km/h 73.2% 0.00in /  0mm 0 W/m2
02:34 33.1 °F /  0.6 °C 25.4 °F /  -3.7 °C 30.15in /  1020.9hPa Calm   1mph /  1.6km/h 73% 0.00in /  0mm 0 W/m2
02:39 33 °F /  0.6 °C 25.3 °F /  -3.7 °C 30.14in /  1020.5hPa Calm     73% 0.00in /  0mm 0 W/m2
02:44 32.9 °F /  0.5 °C 25.4 °F /  -3.7 °C 30.15in /  1020.9hPa WNW 0.4mph /  0.6km/h 2mph /  3.2km/h 73.7% 0.00in /  0mm 0 W/m2
02:49 32.7 °F /  0.4 °C 25.4 °F /  -3.7 °C 30.14in /  1020.5hPa WNW 0.5mph /  0.8km/h 2mph /  3.2km/h 74.1% 0.00in /  0mm 0 W/m2
02:54 32.5 °F /  0.3 °C 25.4 °F /  -3.7 °C 30.14in /  1020.5hPa Calm   2mph /  3.2km/h 75% 0.00in /  0mm 0 W/m2
02:59 32.3 °F /  0.2 °C 25.3 °F /  -3.7 °C 30.14in /  1020.5hPa WNW 0.5mph /  0.8km/h 2mph /  3.2km/h 75% 0.00in /  0mm 0 W/m2
03:04 32.1 °F /  0.1 °C 25.1 °F /  -3.8 °C 30.14in /  1020.5hPa WNW 0.8mph /  1.3km/h 2mph /  3.2km/h 75.1% 0.00in /  0mm 0 W/m2
03:09 32.1 °F /  0.1 °C 24.9 °F /  -3.9 °C 30.14in /  1020.5hPa Calm   2mph /  3.2km/h 74.4% 0.00in /  0mm 0 W/m2
03:14 32.4 °F /  0.2 °C 24.9 °F /  -3.9 °C 30.14in /  1020.5hPa WNW 0.1mph /  0.2km/h 2mph /  3.2km/h 73.6% 0.00in /  0mm 0 W/m2
03:19 32.7 °F /  0.4 °C 25 °F /  -3.9 °C 30.14in /  1020.5hPa Calm   2mph /  3.2km/h 73% 0.00in /  0mm 0 W/m2
03:24 33 °F /  0.6 °C 25.2 °F /  -3.8 °C 30.13in /  1020.2hPa Calm   2mph /  3.2km/h 72.7% 0.00in /  0mm 0 W/m2
03:29 33.2 °F /  0.7 °C 25.2 °F /  -3.8 °C 30.13in /  1020.2hPa Calm   2mph /  3.2km/h 72% 0.00in /  0mm 0 W/m2
03:34 33.2 °F /  0.7 °C 25.2 °F /  -3.8 °C 30.13in /  1020.2hPa Calm   2mph /  3.2km/h 72% 0.00in /  0mm 0 W/m2
03:39 33.2 °F /  0.7 °C 24.9 °F /  -3.9 °C 30.12in /  1019.9hPa Calm   1mph /  1.6km/h 71.1% 0.00in /  0mm 0 W/m2
03:44 33.2 °F /  0.7 °C 24.8 °F /  -4 °C 30.12in /  1019.9hPa Calm   1mph /  1.6km/h 71% 0.00in /  0mm 0 W/m2
03:49 33.2 °F /  0.7 °C 24.8 °F /  -4 °C 30.13in /  1020.2hPa Calm   1mph /  1.6km/h 71% 0.00in /  0mm 0 W/m2
03:54 33.3 °F /  0.7 °C 24.7 °F /  -4.1 °C 30.13in /  1020.2hPa Calm   1mph /  1.6km/h 70.4% 0.00in /  0mm 0 W/m2
03:59 33.5 °F /  0.8 °C 24.8 °F /  -4 °C 30.12in /  1019.9hPa WNW 0.1mph /  0.2km/h 2mph /  3.2km/h 70% 0.00in /  0mm 0 W/m2
04:00 33.6 °F /  0.9 °C 24.9 °F /  -3.9 °C 30.12in /  1019.9hPa Calm   2mph /  3.2km/h 70% 0.00in /  0mm 0 W/m2
04:09 33.6 °F /  0.9 °C 25 °F /  -3.9 °C 30.13in /  1020.2hPa Calm     70.5% 0.00in /  0mm 0 W/m2
04:14 33.4 °F /  0.8 °C 24.7 °F /  -4.1 °C 30.13in /  1020.2hPa Calm     70.1% 0.00in /  0mm 0 W/m2
04:19 33.4 °F /  0.8 °C 24.7 °F /  -4.1 °C 30.12in /  1019.9hPa Calm     70% 0.00in /  0mm 0 W/m2
04:24 33.5 °F /  0.8 °C 24.8 °F /  -4 °C 30.12in /  1019.9hPa Calm     70% 0.00in /  0mm 0 W/m2
04:29 33.7 °F /  0.9 °C 24.7 °F /  -4.1 °C 30.12in /  1019.9hPa WNW 0.3mph /  0.5km/h 3mph /  4.8km/h 69.3% 0.00in /  0mm 0 W/m2
04:34 33.8 °F /  1 °C 24.6 °F /  -4.1 °C 30.11in /  1019.5hPa WNW 0.4mph /  0.6km/h 3mph /  4.8km/h 68.6% 0.00in /  0mm 0 W/m2
04:39 33.9 °F /  1.1 °C 24.6 °F /  -4.1 °C 30.11in /  1019.5hPa WNW 0.6mph /  1km/h 3mph /  4.8km/h 68.3% 0.00in /  0mm 0 W/m2
04:44 33.9 °F /  1.1 °C 24.8 °F /  -4 °C 30.11in /  1019.5hPa Calm   3mph /  4.8km/h 69% 0.00in /  0mm 0 W/m2
04:49 33.7 °F /  0.9 °C 24.9 °F /  -3.9 °C 30.11in /  1019.5hPa Calm   3mph /  4.8km/h 69.6% 0.00in /  0mm 0 W/m2
04:54 33.4 °F /  0.8 °C 25.3 °F /  -3.7 °C 30.11in /  1019.5hPa Calm   3mph /  4.8km/h 71.7% 0.00in /  0mm 0 W/m2
04:59 32.9 °F /  0.5 °C 25.4 °F /  -3.7 °C 30.12in /  1019.9hPa Calm   3mph /  4.8km/h 73.4% 0.00in /  0mm 0 W/m2
05:04 32.7 °F /  0.4 °C 25 °F /  -3.9 °C 30.11in /  1019.5hPa Calm   3mph /  4.8km/h 73.1% 0.00in /  0mm 0 W/m2
05:09 32.5 °F /  0.3 °C 25 °F /  -3.9 °C 30.11in /  1019.5hPa Calm     73.4% 0.00in /  0mm 0 W/m2
05:14 32.4 °F /  0.2 °C 25 °F /  -3.9 °C 30.11in /  1019.5hPa Calm     74% 0.00in /  0mm 0 W/m2
05:19 32.2 °F /  0.1 °C 25.2 °F /  -3.8 °C 30.11in /  1019.5hPa Calm     75.1% 0.00in /  0mm 0 W/m2
05:24 32 °F /  0 °C 25 °F /  -3.9 °C 30.11in /  1019.5hPa Calm     75% 0.00in /  0mm 0 W/m2
05:29 31.8 °F /  -0.1 °C 25 °F /  -3.9 °C 30.12in /  1019.9hPa Calm   1mph /  1.6km/h 75.6% 0.00in /  0mm 0 W/m2
05:34 31.8 °F /  -0.1 °C 25.1 °F /  -3.8 °C 30.12in /  1019.9hPa Calm   1mph /  1.6km/h 76% 0.00in /  0mm 0 W/m2
05:39 31.8 °F /  -0.1 °C 24.8 °F /  -4 °C 30.11in /  1019.5hPa Calm     75.1% 0.00in /  0mm 0 W/m2
05:44 32 °F /  0 °C 25.3 °F /  -3.7 °C 30.11in /  1019.5hPa Calm     75.8% 0.00in /  0mm 0 W/m2
05:49 32.1 °F /  0.1 °C 25.4 °F /  -3.7 °C 30.11in /  1019.5hPa Calm     76% 0.00in /  0mm 0 W/m2
05:54 31.9 °F /  -0.1 °C 25.3 °F /  -3.7 °C 30.11in /  1019.5hPa Calm     76.1% 0.00in /  0mm 0 W/m2
05:59 31.8 °F /  -0.1 °C 25.4 °F /  -3.7 °C 30.10in /  1019.2hPa Calm     77% 0.00in /  0mm 0 W/m2
06:04 31.7 °F /  -0.2 °C 25.4 °F /  -3.7 °C 30.10in /  1019.2hPa Calm     77.2% 0.00in /  0mm 0 W/m2
06:09 31.7 °F /  -0.2 °C 25.6 °F /  -3.6 °C 30.10in /  1019.2hPa Calm     78% 0.00in /  0mm 0 W/m2
06:14 31.7 °F /  -0.2 °C 25.8 °F /  -3.4 °C 30.09in /  1018.8hPa Calm     78.5% 0.00in /  0mm 0 W/m2
06:19 31.7 °F /  -0.2 °C 25.9 °F /  -3.4 °C 30.09in /  1018.8hPa Calm     79% 0.00in /  0mm 0 W/m2
06:24 31.7 °F /  -0.2 °C 25.9 °F /  -3.4 °C 30.10in /  1019.2hPa Calm     79% 0.00in /  0mm 0 W/m2
06:29 31.7 °F /  -0.2 °C 25.9 °F /  -3.4 °C 30.10in /  1019.2hPa Calm     79% 0.00in /  0mm 0 W/m2
06:34 31.7 °F /  -0.2 °C 25.9 °F /  -3.4 °C 30.09in /  1018.8hPa Calm     79% 0.00in /  0mm 0 W/m2
06:39 31.8 °F /  -0.1 °C 25.9 °F /  -3.4 °C 30.09in /  1018.8hPa Calm     78.6% 0.00in /  0mm 0 W/m2
06:44 32 °F /  0 °C 25.7 °F /  -3.5 °C 30.09in /  1018.8hPa Calm     77.5% 0.00in /  0mm 0 W/m2
06:49 32.1 °F /  0.1 °C 25.7 °F /  -3.5 °C 30.09in /  1018.8hPa Calm     77% 0.00in /  0mm 0 W/m2
06:54 32.2 °F /  0.1 °C 25.8 °F /  -3.4 °C 30.08in /  1018.5hPa Calm     77% 0.00in /  0mm 5 W/m2
06:59 32.1 °F /  0.1 °C 25.7 °F /  -3.5 °C 30.08in /  1018.5hPa Calm     77% 0.00in /  0mm 11 W/m2
07:04 32.1 °F /  0.1 °C 25.7 °F /  -3.5 °C 30.08in /  1018.5hPa Calm     77% 0.00in /  0mm 11 W/m2
07:09 32.1 °F /  0.1 °C 25.7 °F /  -3.5 °C 30.08in /  1018.5hPa Calm     77% 0.00in /  0mm 12 W/m2
07:14 32.1 °F /  0.1 °C 25.7 °F /  -3.5 °C 30.08in /  1018.5hPa Calm     77% 0.00in /  0mm 16 W/m2
07:19 32.1 °F /  0.1 °C 26 °F /  -3.3 °C 30.08in /  1018.5hPa Calm     77.7% 0.00in /  0mm 16 W/m2
07:24 32.1 °F /  0.1 °C 26 °F /  -3.3 °C 30.07in /  1018.2hPa Calm     78% 0.00in /  0mm 23 W/m2
07:29 32 °F /  0 °C 25.9 °F /  -3.4 °C 30.07in /  1018.2hPa Calm     78% 0.00in /  0mm 23 W/m2
07:34 32.1 °F /  0.1 °C 26 °F /  -3.3 °C 30.07in /  1018.2hPa Calm     78% 0.00in /  0mm 40 W/m2
07:39 32.2 °F /  0.1 °C 26.2 °F /  -3.2 °C 30.07in /  1018.2hPa Calm     78% 0.00in /  0mm 79 W/m2
07:44 32.5 °F /  0.3 °C 26.4 °F /  -3.1 °C 30.07in /  1018.2hPa Calm     78% 0.00in /  0mm 79 W/m2
07:49 32.8 °F /  0.4 °C 26.8 °F /  -2.9 °C 30.07in /  1018.2hPa WNW 0.2mph /  0.3km/h 3mph /  4.8km/h 78% 0.00in /  0mm 83 W/m2
07:54 33.4 °F /  0.8 °C 27.1 °F /  -2.7 °C 30.07in /  1018.2hPa WNW 0.6mph /  1km/h 3mph /  4.8km/h 77.3% 0.00in /  0mm 88 W/m2
07:59 34 °F /  1.1 °C 27.5 °F /  -2.5 °C 30.07in /  1018.2hPa WNW 0.8mph /  1.3km/h 4mph /  6.4km/h 76.9% 0.00in /  0mm 139 W/m2
08:00 34.3 °F /  1.3 °C 27.5 °F /  -2.5 °C 30.07in /  1018.2hPa West 3mph /  4.8km/h 4mph /  6.4km/h 76% 0.00in /  0mm 139 W/m2
08:09 35.5 °F /  1.9 °C 27.6 °F /  -2.4 °C 30.07in /  1018.2hPa West 0.2mph /  0.3km/h 2mph /  3.2km/h 72.5% 0.00in /  0mm 163 W/m2
08:14 36.4 °F /  2.4 °C 27.9 °F /  -2.3 °C 30.06in /  1017.8hPa West 0.6mph /  1km/h 3mph /  4.8km/h 70.7% 0.00in /  0mm 193 W/m2
08:19 37.4 °F /  3 °C 28.1 °F /  -2.2 °C 30.06in /  1017.8hPa Calm   3mph /  4.8km/h 69% 0.00in /  0mm 202 W/m2
08:24 38.4 °F /  3.6 °C 29.1 °F /  -1.6 °C 30.06in /  1017.8hPa Calm   3mph /  4.8km/h 68.8% 0.00in /  0mm 232 W/m2
08:29 39.6 °F /  4.2 °C 29.7 °F /  -1.3 °C 30.06in /  1017.8hPa Calm   3mph /  4.8km/h 67.5% 0.00in /  0mm 267 W/m2
08:34 40.7 °F /  4.8 °C 30.1 °F /  -1.1 °C 30.06in /  1017.8hPa West 0.1mph /  0.2km/h 3mph /  4.8km/h 65.5% 0.00in /  0mm 274 W/m2
08:39 41.6 °F /  5.3 °C 30.2 °F /  -1 °C 30.06in /  1017.8hPa West 1.5mph /  2.4km/h 4mph /  6.4km/h 63.5% 0.00in /  0mm 225 W/m2
08:44 42 °F /  5.6 °C 29.6 °F /  -1.3 °C 30.06in /  1017.8hPa West 1.3mph /  2.1km/h 6mph /  9.7km/h 61.1% 0.00in /  0mm 206 W/m2
08:49 42 °F /  5.6 °C 29.3 °F /  -1.5 °C 30.06in /  1017.8hPa WSW 0.1mph /  0.2km/h 6mph /  9.7km/h 60.4% 0.00in /  0mm 172 W/m2
08:54 42.2 °F /  5.7 °C 29.5 °F /  -1.4 °C 30.05in /  1017.5hPa Calm   6mph /  9.7km/h 60.5% 0.00in /  0mm 179 W/m2
08:59 42.4 °F /  5.8 °C 29.6 °F /  -1.3 °C 30.05in /  1017.5hPa Calm   6mph /  9.7km/h 60.3% 0.00in /  0mm 149 W/m2
09:04 42.6 °F /  5.9 °C 29.5 °F /  -1.4 °C 30.04in /  1017.2hPa Calm   6mph /  9.7km/h 59.5% 0.00in /  0mm 155 W/m2
09:09 42.7 °F /  5.9 °C 29.2 °F /  -1.6 °C 30.04in /  1017.2hPa Calm     58.5% 0.00in /  0mm 156 W/m2
09:14 42.7 °F /  5.9 °C 29 °F /  -1.7 °C 30.04in /  1017.2hPa Calm     58.1% 0.00in /  0mm 153 W/m2
09:19 42.8 °F /  6 °C 29.3 °F /  -1.5 °C 30.04in /  1017.2hPa Calm     58.5% 0.00in /  0mm 149 W/m2
09:24 43 °F /  6.1 °C 29.7 °F /  -1.3 °C 30.03in /  1016.8hPa Calm     59% 0.00in /  0mm 193 W/m2
09:29 43.2 °F /  6.2 °C 29.5 °F /  -1.4 °C 30.03in /  1016.8hPa Calm     58.3% 0.00in /  0mm 132 W/m2
09:34 43.3 °F /  6.3 °C 29.4 °F /  -1.4 °C 30.03in /  1016.8hPa Calm     57.7% 0.00in /  0mm 176 W/m2
09:39 43.4 °F /  6.3 °C 29.1 °F /  -1.6 °C 30.03in /  1016.8hPa Calm     56.8% 0.00in /  0mm 199 W/m2
09:44 43.6 °F /  6.4 °C 29.6 °F /  -1.3 °C 30.03in /  1016.8hPa Calm     57.5% 0.00in /  0mm 199 W/m2
09:49 43.9 °F /  6.6 °C 29.8 °F /  -1.2 °C 30.03in /  1016.8hPa Calm     57.4% 0.00in /  0mm 188 W/m2
09:54 44.2 °F /  6.8 °C 30.1 °F /  -1.1 °C 30.03in /  1016.8hPa Calm     57.2% 0.00in /  0mm 278 W/m2
09:59 44.7 °F /  7.1 °C 30.5 °F /  -0.8 °C 30.03in /  1016.8hPa Calm     57.2% 0.00in /  0mm 332 W/m2
10:04 45.3 °F /  7.4 °C 30.7 °F /  -0.7 °C 30.02in /  1016.5hPa Calm     56.2% 0.00in /  0mm 327 W/m2
10:09 45.8 °F /  7.7 °C 30.3 °F /  -0.9 °C 30.02in /  1016.5hPa Calm     54.3% 0.00in /  0mm 221 W/m2
10:14 46.1 °F /  7.8 °C 30.5 °F /  -0.8 °C 30.01in /  1016.1hPa Calm     54.1% 0.00in /  0mm 204 W/m2
10:19 46.3 °F /  7.9 °C 30.5 °F /  -0.8 °C 30.01in /  1016.1hPa Calm     53.9% 0.00in /  0mm 223 W/m2
10:24 46.4 °F /  8 °C 30.5 °F /  -0.8 °C 30.01in /  1016.1hPa Calm     53.6% 0.00in /  0mm 427 W/m2
10:29 46.9 °F /  8.3 °C 31.5 °F /  -0.3 °C 30.01in /  1016.1hPa Calm     54.8% 0.00in /  0mm 404 W/m2
10:34 47.3 °F /  8.5 °C 31.2 °F /  -0.4 °C 30.02in /  1016.5hPa Calm     53.2% 0.00in /  0mm 279 W/m2
10:39 47.7 °F /  8.7 °C 31.4 °F /  -0.3 °C 30.01in /  1016.1hPa Calm     53% 0.00in /  0mm 257 W/m2
10:44 47.9 °F /  8.8 °C 31 °F /  -0.6 °C 30.01in /  1016.1hPa Calm     51.7% 0.00in /  0mm 288 W/m2
10:49 48.1 °F /  8.9 °C 31.3 °F /  -0.4 °C 30.00in /  1015.8hPa Calm     51.8% 0.00in /  0mm 318 W/m2
10:54 48.3 °F /  9.1 °C 31.2 °F /  -0.4 °C 29.99in /  1015.5hPa Calm     51.3% 0.00in /  0mm 250 W/m2
10:59 48.2 °F /  9 °C 30.6 °F /  -0.8 °C 29.99in /  1015.5hPa Calm     50.2% 0.00in /  0mm 431 W/m2
11:04 48 °F /  8.9 °C 30.3 °F /  -0.9 °C 29.99in /  1015.5hPa Calm     50% 0.00in /  0mm 332 W/m2
11:09 48.1 °F /  8.9 °C 31 °F /  -0.6 °C 29.99in /  1015.5hPa Calm     51.3% 0.00in /  0mm 171 W/m2
11:14 48.5 °F /  9.2 °C 31.7 °F /  -0.2 °C 29.98in /  1015.1hPa WSW 0.4mph /  0.6km/h 4mph /  6.4km/h 52.1% 0.00in /  0mm 251 W/m2
11:19 48.9 °F /  9.4 °C 31.9 °F /  -0.1 °C 29.98in /  1015.1hPa WSW 0.5mph /  0.8km/h 4mph /  6.4km/h 51.7% 0.00in /  0mm 327 W/m2
11:24 49.4 °F /  9.7 °C 32.5 °F /  0.3 °C 29.98in /  1015.1hPa Calm   4mph /  6.4km/h 51.9% 0.00in /  0mm 406 W/m2
11:29 50 °F /  10 °C 32.5 °F /  0.3 °C 29.97in /  1014.8hPa Calm   4mph /  6.4km/h 50.8% 0.00in /  0mm 204 W/m2
11:34 50.4 °F /  10.2 °C 31.7 °F /  -0.2 °C 29.96in /  1014.4hPa Calm   4mph /  6.4km/h 48.6% 0.00in /  0mm 332 W/m2
11:39 50.9 °F /  10.5 °C 32.3 °F /  0.2 °C 29.96in /  1014.4hPa WSW 0.1mph /  0.2km/h 3mph /  4.8km/h 48.8% 0.00in /  0mm 323 W/m2
11:44 51.3 °F /  10.7 °C 32.1 °F /  0.1 °C 29.96in /  1014.4hPa Calm   3mph /  4.8km/h 47.6% 0.00in /  0mm 234 W/m2
11:49 51.5 °F /  10.8 °C 31.8 °F /  -0.1 °C 29.96in /  1014.4hPa Calm   3mph /  4.8km/h 46.6% 0.00in /  0mm 146 W/m2
11:54 51.5 °F /  10.8 °C 31.7 °F /  -0.2 °C 29.96in /  1014.4hPa Calm   3mph /  4.8km/h 46.5% 0.00in /  0mm 146 W/m2
11:59 51.6 °F /  10.9 °C 31.7 °F /  -0.2 °C 29.95in /  1014.1hPa Calm   3mph /  4.8km/h 46.4% 0.00in /  0mm 408 W/m2
12:09 51.7 °F /  10.9 °C 31.8 °F /  -0.1 °C 29.94in /  1013.8hPa Calm   1mph /  1.6km/h 46.3% 0.00in /  0mm 207 W/m2
12:14 51.7 °F /  10.9 °C 32.1 °F /  0.1 °C 29.94in /  1013.8hPa Calm   1mph /  1.6km/h 46.9% 0.00in /  0mm 179 W/m2
12:19 51.8 °F /  11 °C 32.3 °F /  0.2 °C 29.94in /  1013.8hPa Calm   1mph /  1.6km/h 47.2% 0.00in /  0mm 178 W/m2
12:24 51.9 °F /  11.1 °C 32.1 °F /  0.1 °C 29.94in /  1013.8hPa WSW 0.1mph /  0.2km/h 1mph /  1.6km/h 46.5% 0.00in /  0mm 146 W/m2
12:29 52 °F /  11.1 °C 31.7 °F /  -0.2 °C 29.93in /  1013.4hPa Calm   1mph /  1.6km/h 45.7% 0.00in /  0mm 139 W/m2
12:34 52.1 °F /  11.2 °C 32 °F /  0 °C 29.93in /  1013.4hPa Calm   1mph /  1.6km/h 46% 0.00in /  0mm 149 W/m2
12:39 52.1 °F /  11.2 °C 32.3 °F /  0.2 °C 29.92in /  1013.1hPa Calm     46.5% 0.00in /  0mm 188 W/m2
12:44 52.2 °F /  11.2 °C 32.1 °F /  0.1 °C 29.92in /  1013.1hPa Calm     46.1% 0.00in /  0mm 260 W/m2
12:49 52.4 °F /  11.3 °C 31.7 °F /  -0.2 °C 29.92in /  1013.1hPa Calm     45.1% 0.00in /  0mm 214 W/m2
12:54 52.6 °F /  11.4 °C 31.6 °F /  -0.2 °C 29.91in /  1012.8hPa WSW 0.2mph /  0.3km/h 2mph /  3.2km/h 44.3% 0.00in /  0mm 195 W/m2
12:59 52.9 °F /  11.6 °C 32.2 °F /  0.1 °C 29.92in /  1013.1hPa Calm   2mph /  3.2km/h 45.1% 0.00in /  0mm 209 W/m2
13:04 53.1 °F /  11.7 °C 31.5 °F /  -0.3 °C 29.91in /  1012.8hPa WSW 0.1mph /  0.2km/h 2mph /  3.2km/h 43.5% 0.00in /  0mm 346 W/m2
13:09 53.4 °F /  11.9 °C 32.1 °F /  0.1 °C 29.91in /  1012.8hPa Calm   2mph /  3.2km/h 44.1% 0.00in /  0mm 352 W/m2
13:14 53.5 °F /  11.9 °C 31.9 °F /  -0.1 °C 29.91in /  1012.8hPa Calm   2mph /  3.2km/h 43.4% 0.00in /  0mm 183 W/m2
13:19 53.7 °F /  12.1 °C 32.5 °F /  0.3 °C 29.91in /  1012.8hPa Calm   2mph /  3.2km/h 44.4% 0.00in /  0mm 178 W/m2
13:24 53.9 °F /  12.2 °C 32.7 °F /  0.4 °C 29.91in /  1012.8hPa Calm   2mph /  3.2km/h 44.3% 0.00in /  0mm 178 W/m2
13:29 54 °F /  12.2 °C 33.2 °F /  0.7 °C 29.91in /  1012.8hPa WSW 0.3mph /  0.5km/h 2mph /  3.2km/h 45% 0.00in /  0mm 167 W/m2
13:34 54.2 °F /  12.3 °C 33 °F /  0.6 °C 29.90in /  1012.4hPa Calm   2mph /  3.2km/h 44.5% 0.00in /  0mm 141 W/m2
13:39 54.2 °F /  12.3 °C 33.4 °F /  0.8 °C 29.90in /  1012.4hPa Calm   1mph /  1.6km/h 45% 0.00in /  0mm 148 W/m2
13:44 54.3 °F /  12.4 °C 33.4 °F /  0.8 °C 29.90in /  1012.4hPa Calm   1mph /  1.6km/h 45% 0.00in /  0mm 139 W/m2
13:49 54.3 °F /  12.4 °C 33.7 °F /  0.9 °C 29.90in /  1012.4hPa Calm   1mph /  1.6km/h 45.5% 0.00in /  0mm 111 W/m2
13:54 54.3 °F /  12.4 °C 33.2 °F /  0.7 °C 29.90in /  1012.4hPa WSW 0.1mph /  0.2km/h 2mph /  3.2km/h 44.6% 0.00in /  0mm 97 W/m2
13:59 54.2 °F /  12.3 °C 32.9 °F /  0.5 °C 29.89in /  1012.1hPa Calm   2mph /  3.2km/h 44.2% 0.00in /  0mm 81 W/m2
14:04 54.1 °F /  12.3 °C 33.3 °F /  0.7 °C 29.89in /  1012.1hPa Calm   2mph /  3.2km/h 45% 0.00in /  0mm 77 W/m2
14:09 54 °F /  12.2 °C 33.4 °F /  0.8 °C 29.89in /  1012.1hPa WSW 0.2mph /  0.3km/h 3mph /  4.8km/h 45.3% 0.00in /  0mm 62 W/m2
14:14 53.9 °F /  12.2 °C 33.2 °F /  0.7 °C 29.89in /  1012.1hPa Calm   3mph /  4.8km/h 45.2% 0.00in /  0mm 72 W/m2
14:19 53.7 °F /  12.1 °C 33.1 °F /  0.6 °C 29.89in /  1012.1hPa Calm   3mph /  4.8km/h 45.3% 0.00in /  0mm 70 W/m2
14:24 53.6 °F /  12 °C 33.1 °F /  0.6 °C 29.88in /  1011.7hPa WSW 0.1mph /  0.2km/h 3mph /  4.8km/h 45.5% 0.00in /  0mm 63 W/m2
14:29 53.5 °F /  11.9 °C 33.3 °F /  0.7 °C 29.88in /  1011.7hPa Calm   3mph /  4.8km/h 46% 0.00in /  0mm 51 W/m2
14:34 53.4 °F /  11.9 °C 33.2 °F /  0.7 °C 29.88in /  1011.7hPa Calm   3mph /  4.8km/h 46% 0.00in /  0mm 49 W/m2
14:39 53.4 °F /  11.9 °C 33.2 °F /  0.7 °C 29.88in /  1011.7hPa Calm     46.2% 0.00in /  0mm 33 W/m2
14:44 53.3 °F /  11.8 °C 33.4 °F /  0.8 °C 29.88in /  1011.7hPa Calm     46.7% 0.00in /  0mm 28 W/m2
14:49 53.2 °F /  11.8 °C 33.8 °F /  1 °C 29.88in /  1011.7hPa Calm     47.5% 0.00in /  0mm 35 W/m2
14:54 53.1 °F /  11.7 °C 34 °F /  1.1 °C 29.88in /  1011.7hPa Calm     48% 0.00in /  0mm 72 W/m2
14:59 53.1 °F /  11.7 °C 33.5 °F /  0.8 °C 29.88in /  1011.7hPa Calm     47.2% 0.00in /  0mm 77 W/m2
15:04 53 °F /  11.7 °C 33 °F /  0.6 °C 29.88in /  1011.7hPa Calm   1mph /  1.6km/h 46.3% 0.00in /  0mm 76 W/m2
15:09 53.1 °F /  11.7 °C 33.1 °F /  0.6 °C 29.87in /  1011.4hPa Calm   1mph /  1.6km/h 46.4% 0.00in /  0mm 53 W/m2
15:14 53.1 °F /  11.7 °C 33.2 °F /  0.7 °C 29.87in /  1011.4hPa Calm   1mph /  1.6km/h 46.7% 0.00in /  0mm 37 W/m2
15:19 53 °F /  11.7 °C 33.2 °F /  0.7 °C 29.87in /  1011.4hPa Calm   1mph /  1.6km/h 46.7% 0.00in /  0mm 28 W/m2
15:24 53 °F /  11.7 °C 33.8 °F /  1 °C 29.87in /  1011.4hPa Calm   1mph /  1.6km/h 48% 0.00in /  0mm 30 W/m2
15:29 52.9 °F /  11.6 °C 33.8 °F /  1 °C 29.87in /  1011.4hPa WSW 0.2mph /  0.3km/h 2mph /  3.2km/h 48% 0.00in /  0mm 30 W/m2
15:34 52.8 °F /  11.6 °C 33.7 °F /  0.9 °C 29.87in /  1011.4hPa Calm   2mph /  3.2km/h 48% 0.00in /  0mm 39 W/m2
15:39 52.7 °F /  11.5 °C 33.6 °F /  0.9 °C 29.86in /  1011.1hPa Calm     48% 0.00in /  0mm 47 W/m2
15:44 52.7 °F /  11.5 °C 33.4 °F /  0.8 °C 29.87in /  1011.4hPa Calm     47.6% 0.00in /  0mm 46 W/m2
15:49 52.6 °F /  11.4 °C 33.1 °F /  0.6 °C 29.86in /  1011.1hPa Calm     47.2% 0.00in /  0mm 23 W/m2
15:54 52.5 °F /  11.4 °C 33 °F /  0.6 °C 29.86in /  1011.1hPa WSW 0.1mph /  0.2km/h 2mph /  3.2km/h 47.1% 0.00in /  0mm 12 W/m2
15:59 52.4 °F /  11.3 °C 32.5 °F /  0.3 °C 29.85in /  1010.7hPa Calm   2mph /  3.2km/h 46.5% 0.00in /  0mm 12 W/m2
16:09 52.1 °F /  11.2 °C 32.1 °F /  0.1 °C 29.84in /  1010.4hPa Calm     46.1% 0.00in /  0mm 9 W/m2
16:14 52 °F /  11.1 °C 32.2 °F /  0.1 °C 29.84in /  1010.4hPa Calm     46.7% 0.00in /  0mm 7 W/m2
16:19 51.8 °F /  11 °C 32.2 °F /  0.1 °C 29.84in /  1010.4hPa Calm     47% 0.00in /  0mm 0 W/m2
16:24 51.6 °F /  10.9 °C 32 °F /  0 °C 29.84in /  1010.4hPa Calm     47% 0.00in /  0mm 0 W/m2
16:29 51.3 °F /  10.7 °C 32.1 °F /  0.1 °C 29.84in /  1010.4hPa Calm     47.7% 0.00in /  0mm 0 W/m2
16:34 51 °F /  10.6 °C 32 °F /  0 °C 29.84in /  1010.4hPa Calm     48% 0.00in /  0mm 0 W/m2
16:39 50.7 °F /  10.4 °C 31.5 °F /  -0.3 °C 29.84in /  1010.4hPa Calm     47.6% 0.00in /  0mm 0 W/m2
16:44 50.4 °F /  10.2 °C 30.9 °F /  -0.6 °C 29.84in /  1010.4hPa Calm     47% 0.00in /  0mm 0 W/m2
16:49 50.1 °F /  10.1 °C 31.1 °F /  -0.5 °C 29.84in /  1010.4hPa WSW 0.1mph /  0.2km/h 3mph /  4.8km/h 47.8% 0.00in /  0mm 0 W/m2
16:54 49.8 °F /  9.9 °C 31.8 °F /  -0.1 °C 29.85in /  1010.7hPa WSW 1.8mph /  2.9km/h 4mph /  6.4km/h 49.7% 0.00in /  0mm 0 W/m2
16:59 49.4 °F /  9.7 °C 31.6 °F /  -0.2 °C 29.85in /  1010.7hPa WSW 0.6mph /  1km/h 4mph /  6.4km/h 50.1% 0.00in /  0mm 0 W/m2
17:04 49 °F /  9.4 °C 30.8 °F /  -0.7 °C 29.85in /  1010.7hPa WSW 0.3mph /  0.5km/h 4mph /  6.4km/h 49.2% 0.00in /  0mm 0 W/m2
17:09 48.7 °F /  9.3 °C 30.5 °F /  -0.8 °C 29.85in /  1010.7hPa Calm   2mph /  3.2km/h 49% 0.00in /  0mm 0 W/m2
17:14 48.6 °F /  9.2 °C 30.3 °F /  -0.9 °C 29.85in /  1010.7hPa WSW 0.3mph /  0.5km/h 4mph /  6.4km/h 49% 0.00in /  0mm 0 W/m2
17:19 48.4 °F /  9.1 °C 30.1 °F /  -1.1 °C 29.85in /  1010.7hPa WSW 0.1mph /  0.2km/h 4mph /  6.4km/h 49% 0.00in /  0mm 0 W/m2
17:24 48.2 °F /  9 °C 30.2 °F /  -1 °C 29.85in /  1010.7hPa WSW 0.1mph /  0.2km/h 4mph /  6.4km/h 49.4% 0.00in /  0mm 0 W/m2
17:29 48.1 °F /  8.9 °C 30.2 °F /  -1 °C 29.85in /  1010.7hPa WSW 0.3mph /  0.5km/h 4mph /  6.4km/h 49.7% 0.00in /  0mm 0 W/m2
17:34 48 °F /  8.9 °C 30.3 °F /  -0.9 °C 29.85in /  1010.7hPa Calm   4mph /  6.4km/h 50% 0.00in /  0mm 0 W/m2
17:39 47.9 °F /  8.8 °C 30.1 °F /  -1.1 °C 29.84in /  1010.4hPa WSW 0.4mph /  0.6km/h 4mph /  6.4km/h 50% 0.00in /  0mm 0 W/m2
17:44 47.7 °F /  8.7 °C 30 °F /  -1.1 °C 29.84in /  1010.4hPa SW 0.7mph /  1.1km/h 5mph /  8km/h 50% 0.00in /  0mm 0 W/m2
17:49 47.7 °F /  8.7 °C 30.1 °F /  -1.1 °C 29.84in /  1010.4hPa SW 0.3mph /  0.5km/h 6mph /  9.7km/h 50.3% 0.00in /  0mm 0 W/m2
17:54 47.7 °F /  8.7 °C 30.2 °F /  -1 °C 29.84in /  1010.4hPa Calm   6mph /  9.7km/h 50.3% 0.00in /  0mm 0 W/m2
17:59 47.6 °F /  8.7 °C 30.1 °F /  -1.1 °C 29.84in /  1010.4hPa Calm   6mph /  9.7km/h 50.3% 0.00in /  0mm 0 W/m2
18:04 47.6 °F /  8.7 °C 30.3 °F /  -0.9 °C 29.84in /  1010.4hPa Calm   6mph /  9.7km/h 50.9% 0.00in /  0mm 0 W/m2
18:09 47.4 °F /  8.6 °C 29.9 °F /  -1.2 °C 29.84in /  1010.4hPa SW 0.5mph /  0.8km/h 5mph /  8km/h 50.4% 0.00in /  0mm 0 W/m2
18:14 47.3 °F /  8.5 °C 30.1 °F /  -1.1 °C 29.84in /  1010.4hPa SW 0.2mph /  0.3km/h 5mph /  8km/h 51% 0.00in /  0mm 0 W/m2
18:19 47.2 °F /  8.4 °C 30.1 °F /  -1.1 °C 29.84in /  1010.4hPa Calm   5mph /  8km/h 51.2% 0.00in /  0mm 0 W/m2
18:24 47.1 °F /  8.4 °C 30.3 °F /  -0.9 °C 29.83in /  1010hPa Calm   5mph /  8km/h 51.7% 0.00in /  0mm 0 W/m2
18:29 47.1 °F /  8.4 °C 30.4 °F /  -0.9 °C 29.83in /  1010hPa Calm   5mph /  8km/h 52% 0.00in /  0mm 0 W/m2
18:34 47 °F /  8.3 °C 30.3 °F /  -0.9 °C 29.83in /  1010hPa SW 0.2mph /  0.3km/h 5mph /  8km/h 52% 0.00in /  0mm 0 W/m2
18:39 46.9 °F /  8.3 °C 30.2 °F /  -1 °C 29.83in /  1010hPa SW 0.3mph /  0.5km/h 4mph /  6.4km/h 52% 0.00in /  0mm 0 W/m2
18:44 46.9 °F /  8.3 °C 30.5 °F /  -0.8 °C 29.83in /  1010hPa Calm   4mph /  6.4km/h 52.7% 0.00in /  0mm 0 W/m2
18:49 46.8 °F /  8.2 °C 30.1 °F /  -1.1 °C 29.82in /  1009.7hPa Calm   4mph /  6.4km/h 52% 0.00in /  0mm 0 W/m2
18:54 46.7 °F /  8.2 °C 30.2 °F /  -1 °C 29.82in /  1009.7hPa Calm   4mph /  6.4km/h 52.5% 0.00in /  0mm 0 W/m2
18:59 46.5 °F /  8.1 °C 29.9 °F /  -1.2 °C 29.82in /  1009.7hPa SW 0.1mph /  0.2km/h 4mph /  6.4km/h 52% 0.00in /  0mm 0 W/m2
19:04 46.5 °F /  8.1 °C 30 °F /  -1.1 °C 29.82in /  1009.7hPa SW 0.4mph /  0.6km/h 4mph /  6.4km/h 52.4% 0.00in /  0mm 0 W/m2
19:09 46.5 °F /  8.1 °C 30.3 °F /  -0.9 °C 29.82in /  1009.7hPa Calm   4mph /  6.4km/h 53% 0.00in /  0mm 0 W/m2
19:14 46.7 °F /  8.2 °C 30.7 °F /  -0.7 °C 29.82in /  1009.7hPa WSW 0.2mph /  0.3km/h 5mph /  8km/h 53.5% 0.00in /  0mm 0 W/m2
19:19 46.7 °F /  8.2 °C 30.6 °F /  -0.8 °C 29.82in /  1009.7hPa Calm   5mph /  8km/h 53.2% 0.00in /  0mm 0 W/m2
19:24 46.8 °F /  8.2 °C 30.9 °F /  -0.6 °C 29.82in /  1009.7hPa WSW 0.2mph /  0.3km/h 5mph /  8km/h 53.7% 0.00in /  0mm 0 W/m2
19:29 46.8 °F /  8.2 °C 30.6 °F /  -0.8 °C 29.82in /  1009.7hPa Calm   5mph /  8km/h 53% 0.00in /  0mm 0 W/m2
19:34 46.9 °F /  8.3 °C 30.7 °F /  -0.7 °C 29.81in /  1009.4hPa Calm   5mph /  8km/h 53% 0.00in /  0mm 0 W/m2
19:39 47 °F /  8.3 °C 31 °F /  -0.6 °C 29.81in /  1009.4hPa WSW 1.1mph /  1.8km/h 6mph /  9.7km/h 53.6% 0.00in /  0mm 0 W/m2
19:44 47.1 °F /  8.4 °C 31.1 °F /  -0.5 °C 29.81in /  1009.4hPa WSW 1.8mph /  2.9km/h 10mph /  16.1km/h 53.5% 0.00in /  0mm 0 W/m2
19:49 47.4 °F /  8.6 °C 30.8 °F /  -0.7 °C 29.81in /  1009.4hPa SW 1.1mph /  1.8km/h 10mph /  16.1km/h 52.3% 0.00in /  0mm 0 W/m2
19:54 47.6 °F /  8.7 °C 30.9 °F /  -0.6 °C 29.81in /  1009.4hPa WSW 0.8mph /  1.3km/h 10mph /  16.1km/h 52% 0.00in /  0mm 0 W/m2
19:59 47.8 °F /  8.8 °C 30.7 °F /  -0.7 °C 29.80in /  1009hPa WSW 1.9mph /  3.1km/h 10mph /  16.1km/h 51.4% 0.00in /  0mm 0 W/m2
20:00 47.9 °F /  8.8 °C 30.7 °F /  -0.7 °C 29.80in /  1009hPa WSW 3mph /  4.8km/h 10mph /  16.1km/h 51% 0.00in /  0mm 0 W/m2
20:09 48.1 °F /  8.9 °C 30.8 °F /  -0.7 °C 29.80in /  1009hPa Calm     51% 0.00in /  0mm 0 W/m2
20:14 48.2 °F /  9 °C 31 °F /  -0.6 °C 29.80in /  1009hPa WSW 0.1mph /  0.2km/h 3mph /  4.8km/h 51.2% 0.00in /  0mm 0 W/m2
20:19 48.2 °F /  9 °C 31.3 °F /  -0.4 °C 29.79in /  1008.7hPa Calm   3mph /  4.8km/h 51.7% 0.00in /  0mm 0 W/m2
20:24 48.2 °F /  9 °C 31.5 °F /  -0.3 °C 29.79in /  1008.7hPa Calm   3mph /  4.8km/h 52.2% 0.00in /  0mm 0 W/m2
20:29 48.1 °F /  8.9 °C 31.2 °F /  -0.4 °C 29.79in /  1008.7hPa WSW 0.1mph /  0.2km/h 3mph /  4.8km/h 51.7% 0.00in /  0mm 0 W/m2
20:34 48.2 °F /  9 °C 31.4 °F /  -0.3 °C 29.79in /  1008.7hPa Calm   3mph /  4.8km/h 52% 0.00in /  0mm 0 W/m2
20:39 48.3 °F /  9.1 °C 31.8 °F /  -0.1 °C 29.79in /  1008.7hPa Calm   1mph /  1.6km/h 52.6% 0.00in /  0mm 0 W/m2
20:44 48.3 °F /  9.1 °C 31.8 °F /  -0.1 °C 29.78in /  1008.4hPa Calm   1mph /  1.6km/h 52.6% 0.00in /  0mm 0 W/m2
20:49 48.4 °F /  9.1 °C 31.8 °F /  -0.1 °C 29.78in /  1008.4hPa Calm   1mph /  1.6km/h 52.4% 0.00in /  0mm 0 W/m2
20:54 48.5 °F /  9.2 °C 31.7 °F /  -0.2 °C 29.78in /  1008.4hPa WSW 0.2mph /  0.3km/h 3mph /  4.8km/h 52% 0.00in /  0mm 0 W/m2
20:59 48.5 °F /  9.2 °C 32 °F /  0 °C 29.78in /  1008.4hPa Calm   3mph /  4.8km/h 52.7% 0.00in /  0mm 0 W/m2
21:04 48.5 °F /  9.2 °C 31.7 °F /  -0.2 °C 29.78in /  1008.4hPa Calm   3mph /  4.8km/h 52% 0.00in /  0mm 0 W/m2
21:09 48.4 °F /  9.1 °C 31.7 °F /  -0.2 °C 29.77in /  1008hPa Calm     52.2% 0.00in /  0mm 0 W/m2
21:14 48.3 °F /  9.1 °C 31.7 °F /  -0.2 °C 29.77in /  1008hPa Calm     52.4% 0.00in /  0mm 0 W/m2
21:19 48.3 °F /  9.1 °C 32 °F /  0 °C 29.77in /  1008hPa WSW 0.2mph /  0.3km/h 2mph /  3.2km/h 53% 0.00in /  0mm 0 W/m2
21:23 48.2 °F /  9 °C 31.8 °F /  -0.1 °C 29.77in /  1008hPa WSW 0.5mph /  0.8km/h 5mph /  8km/h 52.9% 0.00in /  0mm 0 W/m2
21:29 48.4 °F /  9.1 °C 31.6 °F /  -0.2 °C 29.77in /  1008hPa WSW 0.4mph /  0.6km/h 5mph /  8km/h 52% 0.00in /  0mm 0 W/m2
21:34 48.5 °F /  9.2 °C 31.7 °F /  -0.2 °C 29.77in /  1008hPa WSW 0.3mph /  0.5km/h 5mph /  8km/h 52% 0.00in /  0mm 0 W/m2
21:39 48.6 °F /  9.2 °C 31.8 °F /  -0.1 °C 29.76in /  1007.7hPa WSW 0.9mph /  1.4km/h 7mph /  11.3km/h 51.9% 0.00in /  0mm 0 W/m2
21:44 48.8 °F /  9.3 °C 31.9 °F /  -0.1 °C 29.76in /  1007.7hPa WSW 0.6mph /  1km/h 7mph /  11.3km/h 51.9% 0.00in /  0mm 0 W/m2
21:49 48.8 °F /  9.3 °C 31.5 °F /  -0.3 °C 29.76in /  1007.7hPa WSW 0.5mph /  0.8km/h 7mph /  11.3km/h 51% 0.00in /  0mm 0 W/m2
21:54 49 °F /  9.4 °C 31.4 °F /  -0.3 °C 29.76in /  1007.7hPa WSW 0.1mph /  0.2km/h 7mph /  11.3km/h 50.6% 0.00in /  0mm 0 W/m2
21:59 49 °F /  9.4 °C 32.2 °F /  0.1 °C 29.76in /  1007.7hPa Calm   7mph /  11.3km/h 52.1% 0.00in /  0mm 0 W/m2
22:04 49 °F /  9.4 °C 32.1 °F /  0.1 °C 29.76in /  1007.7hPa Calm   7mph /  11.3km/h 51.8% 0.00in /  0mm 0 W/m2
22:09 49 °F /  9.4 °C 31.7 °F /  -0.2 °C 29.76in /  1007.7hPa Calm     51% 0.00in /  0mm 0 W/m2
22:14 49 °F /  9.4 °C 31.7 °F /  -0.2 °C 29.76in /  1007.7hPa Calm     51% 0.00in /  0mm 0 W/m2
22:18 49 °F /  9.4 °C 31.7 °F /  -0.2 °C 29.76in /  1007.7hPa Calm     51% 0.00in /  0mm 0 W/m2
22:24 48.9 °F /  9.4 °C 31.6 °F /  -0.2 °C 29.76in /  1007.7hPa Calm     51% 0.00in /  0mm 0 W/m2
22:29 48.8 °F /  9.3 °C 31.5 °F /  -0.3 °C 29.75in /  1007.3hPa Calm     51% 0.00in /  0mm 0 W/m2
22:34 48.8 °F /  9.3 °C 31.8 °F /  -0.1 °C 29.75in /  1007.3hPa Calm     51.7% 0.00in /  0mm 0 W/m2
22:39 48.7 °F /  9.3 °C 31.9 °F /  -0.1 °C 29.75in /  1007.3hPa Calm     52% 0.00in /  0mm 0 W/m2
22:44 48.7 °F /  9.3 °C 31.6 °F /  -0.2 °C 29.75in /  1007.3hPa Calm     51.4% 0.00in /  0mm 0 W/m2
22:49 48.7 °F /  9.3 °C 31.9 °F /  -0.1 °C 29.75in /  1007.3hPa Calm     52% 0.00in /  0mm 0 W/m2
22:54 48.6 °F /  9.2 °C 31.8 °F /  -0.1 °C 29.75in /  1007.3hPa Calm     52% 0.00in /  0mm 0 W/m2
22:59 48.6 °F /  9.2 °C 31.8 °F /  -0.1 °C 29.75in /  1007.3hPa Calm     52% 0.00in /  0mm 0 W/m2
23:00 48.6 °F /  9.2 °C 31.8 °F /  -0.1 °C 29.74in /  1007hPa Calm     52% 0.00in /  0mm 0 W/m2
23:09 48.6 °F /  9.2 °C 32.1 °F /  0.1 °C 29.75in /  1007.3hPa Calm     52.7% 0.00in /  0mm 0 W/m2
23:14 48.6 °F /  9.2 °C 33 °F /  0.6 °C 29.75in /  1007.3hPa Calm     54.7% 0.00in /  0mm 0 W/m2
23:19 48.5 °F /  9.2 °C 33.6 °F /  0.9 °C 29.75in /  1007.3hPa Calm     56.2% 0.00in /  0mm 0 W/m2
23:24 48.4 °F /  9.1 °C 33.8 °F /  1 °C 29.75in /  1007.3hPa Calm     56.9% 0.00in /  0mm 0 W/m2
23:29 48.3 °F /  9.1 °C 33.3 °F /  0.7 °C 29.75in /  1007.3hPa Calm     56% 0.00in /  0mm 0 W/m2
23:34 48.2 °F /  9 °C 33.3 °F /  0.7 °C 29.75in /  1007.3hPa Calm     56.1% 0.00in /  0mm 0 W/m2
23:39 48.1 °F /  8.9 °C 33.4 °F /  0.8 °C 29.74in /  1007hPa Calm     56.6% 0.00in /  0mm 0 W/m2
23:44 47.9 °F /  8.8 °C 32.8 °F /  0.4 °C 29.73in /  1006.7hPa Calm     55.6% 0.00in /  0mm 0 W/m2
23:49 47.9 °F /  8.8 °C 32.8 °F /  0.4 °C 29.73in /  1006.7hPa Calm     55.7% 0.00in /  0mm 0 W/m2
23:54 47.8 °F /  8.8 °C 33 °F /  0.6 °C 29.73in /  1006.7hPa Calm   1mph /  1.6km/h 56.2% 0.00in /  0mm 0 W/m2
23:59 47.7 °F /  8.7 °C 33 °F /  0.6 °C 29.73in /  1006.7hPa Calm   1mph /  1.6km/h 56.5% 0.00in /  0mm 0 W/m2
Hartford County Weather
Compliments of Weather Underground - 2 mb